»·PEaware :: N1BF KBOI-KPDX

N1BF :: KBOI-KPDX

FLIGHT INFORMATION

Flight Status: Arrived
Operator: Privately registered:
United States
More flights under this callsign
Pilot: Ben F. (2808)
Aircraft: BOEING 737-200
(B732)
More flights by this aircraft type
Origin: KBOI Boise Air Terminal/Gowen
United States
Destination: KPDX Portland Intl
United States
More flights between these airports :: More routes between these airports
Route: BOI3 BOI IMB BTG
File this flight plan on PilotEdge
Remarks: RMK / SIMBRIEF
Altitude:
(Current/Filed)
30,000ft
Speed:
(Current/Filed)
420kts
Departed: 31-Aug-19 07:28 AM
Arrived: 31-Aug-19 08:28 AM
Distance/Time
Traveled:
298nm/1:00
Distance/Time
To Go:
Arrived

Flight Plot

Page will automatically refresh every two minutes.

Flight plan parsing failed; only flown route is shown


Map Options




Map Legend


Flown Route
Filed Route
Departure Airport
Arrival Airport
Navaid (VOR, NDB)
Fix

Horizontal Profiles

Position Reports

Time Latitude Longitude Heading Altitude Ground
Speed
31-Aug-19 07:03 43.562235 -116.206193 270 2880ft 0kts
31-Aug-19 07:04 43.562235 -116.206193 270 2880ft 0kts
31-Aug-19 07:05 43.562235 -116.206193 270 2880ft 0kts
31-Aug-19 07:06 43.569978 -116.229621 183 2880ft 0kts
31-Aug-19 07:07 43.569977 -116.229621 183 2880ft 0kts
31-Aug-19 07:08 43.569977 -116.229621 183 2880ft 0kts
31-Aug-19 07:09 43.569977 -116.229621 183 2880ft 0kts
31-Aug-19 07:10 43.569977 -116.229621 183 2880ft 0kts
31-Aug-19 07:11 43.569977 -116.229621 183 2880ft 0kts
31-Aug-19 07:12 43.569977 -116.229621 183 2880ft 0kts
31-Aug-19 07:13 43.569977 -116.229621 183 2880ft 0kts
31-Aug-19 07:14 43.569977 -116.229621 183 2880ft 0kts
31-Aug-19 07:15 43.569977 -116.229621 183 2880ft 0kts
31-Aug-19 07:16 43.569977 -116.229621 183 2880ft 0kts
31-Aug-19 07:17 43.569977 -116.229621 183 2880ft 0kts
31-Aug-19 07:18 43.569977 -116.229621 183 2880ft 0kts
31-Aug-19 07:19 43.569977 -116.229621 183 2880ft 0kts
31-Aug-19 07:20 43.569977 -116.229621 183 2880ft 0kts
31-Aug-19 07:21 43.569977 -116.229621 183 2880ft 0kts
31-Aug-19 07:22 43.569977 -116.229621 183 2880ft 0kts
31-Aug-19 07:23 43.569818 -116.230198 268 2880ft 0kts
31-Aug-19 07:24 43.569709 -116.231894 295 2880ft 13kts
31-Aug-19 07:25 43.570980 -116.236009 254 2880ft 0kts
31-Aug-19 07:26 43.570330 -116.236464 178 2880ft 8kts
31-Aug-19 07:27 43.565696 -116.223692 115 2880ft 133kts
31-Aug-19 07:28 43.544831 -116.164326 116 4958ft 184kts
31-Aug-19 07:29 43.518211 -116.089045 115 6656ft 257kts
31-Aug-19 07:30 43.483600 -115.990411 116 9466ft 291kts
31-Aug-19 07:31 43.506338 -115.895585 15 12285ft 307kts
31-Aug-19 07:32 43.573440 -115.957766 294 14212ft 332kts
31-Aug-19 07:33 43.610986 -116.080869 287 16528ft 345kts
31-Aug-19 07:34 43.647523 -116.207668 292 18788ft 351kts
31-Aug-19 07:35 43.689938 -116.333407 286 20717ft 355kts
31-Aug-19 07:36 43.727947 -116.463693 294 22418ft 363kts
31-Aug-19 07:37 43.768681 -116.595239 289 23927ft 366kts
31-Aug-19 07:38 43.808419 -116.725591 288 25144ft 372kts
31-Aug-19 07:39 43.848051 -116.862490 289 26293ft 378kts
31-Aug-19 07:40 43.889138 -117.001514 289 27323ft 383kts
31-Aug-19 07:41 43.930637 -117.141770 289 28410ft 383kts
31-Aug-19 07:42 43.971838 -117.282435 289 29335ft 384kts
31-Aug-19 07:43 44.012767 -117.423623 289 30058ft 388kts
31-Aug-19 07:44 44.054785 -117.569429 289 30096ft 406kts
31-Aug-19 07:45 44.096892 -117.716405 288 30094ft 419kts
31-Aug-19 07:46 44.139532 -117.865767 288 30093ft 420kts
31-Aug-19 07:47 44.183061 -118.019144 288 30139ft 420kts
31-Aug-19 07:48 44.226477 -118.173449 288 30157ft 420kts
31-Aug-19 07:49 44.269604 -118.327706 288 30155ft 421kts
31-Aug-19 07:50 44.312770 -118.483177 288 30155ft 421kts
31-Aug-19 07:51 44.355547 -118.638166 288 30151ft 419kts
31-Aug-19 07:52 44.395742 -118.785177 287 30146ft 418kts
31-Aug-19 07:53 44.437830 -118.939776 287 30139ft 418kts
31-Aug-19 07:54 44.479382 -119.093480 287 30127ft 417kts
31-Aug-19 07:55 44.520394 -119.246450 287 30127ft 416kts
31-Aug-19 07:56 44.561701 -119.401221 287 30127ft 415kts
31-Aug-19 07:57 44.602679 -119.555890 287 30127ft 414kts
31-Aug-19 07:58 44.664574 -119.688166 298 30132ft 420kts
31-Aug-19 07:59 44.727548 -119.829640 295 30128ft 419kts
31-Aug-19 08:00 44.779588 -119.977394 293 30128ft 417kts
31-Aug-19 08:01 44.834281 -120.124836 293 30123ft 418kts
31-Aug-19 08:02 44.891973 -120.271121 294 30118ft 418kts
31-Aug-19 08:03 44.950185 -120.416714 294 28503ft 416kts
31-Aug-19 08:04 45.005360 -120.557903 293 26160ft 396kts
31-Aug-19 08:05 45.054808 -120.690316 292 23824ft 384kts
31-Aug-19 08:06 45.102341 -120.817204 292 21601ft 375kts
31-Aug-19 08:07 45.151544 -120.947871 292 19322ft 365kts
31-Aug-19 08:08 45.198870 -121.074277 292 17231ft 354kts
31-Aug-19 08:09 45.244465 -121.197433 292 15439ft 343kts
31-Aug-19 08:10 45.289914 -121.320950 293 14040ft 351kts
31-Aug-19 08:11 45.335722 -121.445059 293 13321ft 345kts
31-Aug-19 08:12 45.380607 -121.567532 293 12613ft 339kts
31-Aug-19 08:13 45.421726 -121.680825 293 12010ft 333kts
31-Aug-19 08:14 45.464738 -121.799426 293 11979ft 332kts
31-Aug-19 08:15 45.507602 -121.917833 293 11978ft 332kts
31-Aug-19 08:16 45.549714 -122.035236 292 11977ft 329kts
31-Aug-19 08:17 45.590084 -122.149644 293 10141ft 297kts
31-Aug-19 08:18 45.624327 -122.246410 294 8456ft 254kts
31-Aug-19 08:19 45.654172 -122.340792 289 6720ft 265kts
31-Aug-19 08:20 45.680669 -122.442247 289 5188ft 270kts
31-Aug-19 08:21 45.704800 -122.536504 289 4827ft 232kts
31-Aug-19 08:22 45.725609 -122.622269 272 3967ft 224kts
31-Aug-19 08:23 45.690843 -122.687191 216 3013ft 223kts
31-Aug-19 08:24 45.636799 -122.678611 143 1532ft 208kts
31-Aug-19 08:25 45.604790 -122.620603 120 472ft 142kts
31-Aug-19 08:26 45.589339 -122.581605 120 31ft 44kts
31-Aug-19 08:27 45.586291 -122.576382 226 31ft 2kts
31-Aug-19 08:28 45.587423 -122.579829 300 31ft 16kts
31-Aug-19 08:29 45.587754 -122.582954 210 31ft 9kts
31-Aug-19 08:30 45.587264 -122.583697 299 31ft 0kts
31-Aug-19 08:31 45.587264 -122.583697 299 31ft 0kts
31-Aug-19 08:32 45.587264 -122.583697 299 31ft 0kts
31-Aug-19 08:33 45.587264 -122.583697 299 31ft 0kts

Navigation Log

Ident Type
Flight plan parsing failed, navigation log unavailable